createdAt,value
2023-02-12T00:01:37.195Z,82.82
2023-02-12T00:04:06.158Z,82.87
2023-02-12T00:06:36.728Z,83.02
2023-02-12T00:09:05.151Z,82.44
2023-02-12T00:11:33.325Z,82.82
2023-02-12T00:14:03.526Z,82.88
2023-02-12T00:16:32.031Z,83.00
2023-02-12T00:19:00.929Z,82.79
2023-02-12T00:21:29.382Z,82.74
2023-02-12T00:23:59.219Z,82.09
2023-02-12T00:26:27.480Z,84.06
2023-02-12T00:28:56.157Z,84.59
2023-02-12T00:31:27.229Z,85.14
2023-02-12T00:33:57.981Z,85.94
2023-02-12T00:36:28.772Z,85.51
2023-02-12T00:38:59.102Z,84.79
2023-02-12T00:41:28.251Z,85.13
2023-02-12T00:43:56.795Z,85.00
2023-02-12T00:46:25.262Z,85.10
2023-02-12T00:48:53.639Z,84.93
2023-02-12T00:51:22.003Z,83.87
2023-02-12T00:53:50.269Z,84.68
2023-02-12T00:56:19.959Z,84.99
2023-02-12T00:58:51.175Z,85.55
2023-02-12T01:01:20.338Z,86.58
2023-02-12T01:03:48.720Z,86.95
2023-02-12T01:06:17.262Z,86.65
2023-02-12T01:08:47.781Z,87.73
2023-02-12T01:11:16.032Z,88.25
2023-02-12T01:13:45.733Z,88.31
2023-02-12T01:16:17.306Z,88.85
2023-02-12T01:18:46.427Z,89.47
2023-02-12T01:21:16.482Z,90.60
2023-02-12T01:23:45.911Z,91.17
2023-02-12T01:26:15.639Z,91.00
2023-02-12T01:28:47.234Z,90.73
2023-02-12T01:31:17.642Z,89.51
2023-02-12T01:33:49.054Z,89.98
2023-02-12T01:36:17.783Z,88.33
2023-02-12T01:38:46.633Z,88.37
2023-02-12T01:41:17.077Z,87.74
2023-02-12T01:43:47.618Z,88.18
2023-02-12T01:46:16.972Z,87.90
2023-02-12T01:48:47.170Z,88.05
2023-02-12T01:51:18.337Z,88.17
2023-02-12T01:53:50.083Z,88.02
2023-02-12T01:56:19.067Z,90.02
2023-02-12T01:58:50.032Z,90.52
2023-02-12T02:01:21.999Z,89.68
2023-02-12T02:03:53.451Z,89.75
2023-02-12T02:06:24.485Z,90.02
2023-02-12T02:08:53.032Z,90.57
2023-02-12T02:11:38.964Z,90.46
2023-02-12T02:14:26.586Z,92.76
2023-02-12T02:17:01.635Z,92.75
2023-02-12T02:19:37.336Z,92.39
2023-02-12T02:22:26.063Z,93.43
2023-02-12T02:25:23.016Z,94.21
2023-02-12T02:27:58.406Z,94.24
2023-02-12T02:30:36.797Z,93.92
2023-02-12T02:33:16.935Z,93.56
2023-02-12T02:35:49.862Z,94.23
2023-02-12T02:38:25.598Z,93.86
2023-02-12T02:40:57.979Z,94.03
2023-02-12T02:43:30.085Z,94.30
2023-02-12T02:46:03.046Z,94.03
2023-02-12T02:48:35.782Z,93.48
2023-02-12T02:51:07.162Z,94.64
2023-02-12T02:53:39.135Z,94.84
2023-02-12T02:56:10.638Z,94.92
2023-02-12T02:58:41.517Z,94.61
2023-02-12T03:01:14.056Z,95.03
2023-02-12T03:03:48.741Z,94.96
2023-02-12T03:06:22.324Z,95.21
2023-02-12T03:08:53.703Z,94.43
2023-02-12T03:11:25.140Z,95.12
2023-02-12T03:13:58.958Z,94.20
2023-02-12T03:16:30.699Z,94.59
2023-02-12T03:19:06.300Z,94.30
2023-02-12T03:21:37.233Z,94.09
2023-02-12T03:24:11.640Z,94.55
2023-02-12T03:26:44.214Z,94.18
2023-02-12T03:29:13.083Z,94.55
2023-02-12T03:31:52.253Z,93.44
2023-02-12T03:34:27.736Z,93.17
2023-02-12T03:36:58.806Z,93.28
2023-02-12T03:39:34.965Z,92.75
2023-02-12T03:42:07.142Z,93.58
2023-02-12T03:44:48.622Z,93.73
2023-02-12T03:47:25.321Z,93.06
2023-02-12T03:49:59.706Z,93.79
2023-02-12T03:52:29.746Z,93.49
2023-02-12T03:54:58.604Z,95.70
2023-02-12T03:57:31.493Z,96.41
2023-02-12T04:00:00.772Z,95.94
2023-02-12T04:02:30.700Z,96.92
2023-02-12T04:04:59.527Z,96.79
2023-02-12T04:07:28.809Z,96.50
2023-02-12T04:09:57.519Z,96.02
2023-02-12T04:12:42.108Z,96.39
2023-02-12T04:15:23.675Z,96.40
2023-02-12T04:17:59.747Z,95.54
2023-02-12T04:20:36.275Z,95.29
2023-02-12T04:23:13.491Z,95.36
2023-02-12T04:25:53.624Z,95.59
2023-02-12T04:28:29.920Z,94.76
2023-02-12T04:31:01.422Z,95.50
2023-02-12T04:33:41.318Z,95.51
2023-02-12T04:36:13.556Z,95.46
2023-02-12T04:38:44.827Z,95.64
2023-02-12T04:41:13.558Z,94.47
2023-02-12T04:43:42.269Z,95.06
2023-02-12T04:46:11.256Z,94.17
2023-02-12T04:48:52.321Z,94.75
2023-02-12T04:56:10.847Z,94.82
2023-02-12T04:58:39.351Z,94.56
2023-02-12T05:01:09.378Z,93.78
2023-02-12T05:03:37.912Z,93.70
2023-02-12T05:06:09.655Z,94.20
2023-02-12T05:08:38.097Z,93.69
2023-02-12T05:11:07.798Z,94.53
2023-02-12T05:13:36.667Z,95.93
2023-02-12T05:16:05.963Z,95.95
2023-02-12T05:18:34.641Z,95.93
2023-02-12T05:21:05.546Z,96.34
2023-02-12T05:23:37.766Z,97.35
2023-02-12T05:26:08.555Z,97.53
2023-02-12T05:28:37.098Z,97.72
2023-02-12T05:31:08.564Z,98.20
2023-02-12T05:33:37.330Z,97.20
2023-02-12T05:36:07.376Z,97.79
2023-02-12T05:38:37.513Z,98.62
2023-02-12T05:41:07.188Z,97.74
2023-02-12T05:43:35.592Z,98.20
2023-02-12T05:46:06.413Z,98.23
2023-02-12T05:48:35.478Z,98.95
2023-02-12T05:51:05.081Z,99.00
2023-02-12T05:53:33.873Z,98.30
2023-02-12T05:56:15.280Z,98.33
2023-02-12T05:58:46.241Z,98.61
2023-02-12T06:01:17.406Z,98.47
2023-02-12T06:03:45.969Z,97.82
2023-02-12T06:06:14.449Z,97.63
2023-02-12T06:08:43.300Z,98.33
2023-02-12T06:11:15.836Z,97.50
2023-02-12T06:13:44.344Z,98.19
2023-02-12T06:16:19.108Z,97.39
2023-02-12T06:18:48.608Z,97.96
2023-02-12T06:21:18.265Z,98.04
2023-02-12T06:23:47.553Z,97.64
2023-02-12T06:26:18.179Z,97.67
2023-02-12T06:28:47.511Z,98.07
2023-02-12T06:31:22.703Z,97.90
2023-02-12T06:33:51.895Z,98.36
2023-02-12T06:36:20.781Z,97.56
2023-02-12T06:38:49.621Z,97.53
2023-02-12T06:41:19.387Z,97.90
2023-02-12T06:43:48.065Z,97.38
2023-02-12T06:46:17.203Z,98.12
2023-02-12T06:48:45.908Z,98.58
2023-02-12T06:51:16.018Z,98.58
2023-02-12T06:53:45.011Z,99.15
2023-02-12T06:56:13.940Z,98.54
2023-02-12T06:58:45.275Z,98.40
2023-02-12T07:01:17.755Z,98.39
2023-02-12T07:03:49.342Z,98.53
2023-02-12T07:06:18.495Z,99.12
2023-02-12T07:08:47.551Z,99.43
2023-02-12T07:11:16.486Z,98.54
2023-02-12T07:13:47.117Z,99.18
2023-02-12T07:16:22.576Z,99.07
2023-02-12T07:18:52.512Z,98.49
2023-02-12T07:21:22.396Z,99.27
2023-02-12T07:23:52.538Z,99.44
2023-02-12T07:26:22.647Z,99.55
2023-02-12T07:28:53.069Z,99.45
2023-02-12T07:31:23.621Z,98.83
2023-02-12T07:33:55.217Z,99.72
2023-02-12T07:36:27.796Z,98.69
2023-02-12T07:38:56.725Z,99.64
2023-02-12T07:41:26.812Z,99.22
2023-02-12T07:43:58.052Z,99.01
2023-02-12T07:46:30.163Z,99.40
2023-02-12T07:48:58.978Z,99.09
2023-02-12T07:51:28.458Z,99.00
2023-02-12T07:53:57.365Z,99.01
2023-02-12T07:56:29.915Z,98.27
2023-02-12T07:59:01.196Z,99.28
2023-02-12T08:01:30.986Z,99.53
2023-02-12T08:04:00.893Z,99.16
2023-02-12T08:06:30.677Z,99.21
2023-02-12T08:09:04.529Z,98.70
2023-02-12T08:11:36.960Z,99.07
2023-02-12T08:14:07.254Z,98.91
2023-02-12T08:16:38.231Z,99.93
2023-02-12T08:19:17.833Z,99.38
2023-02-12T08:21:51.492Z,98.84
2023-02-12T08:24:22.455Z,98.83
2023-02-12T08:26:51.375Z,99.09
2023-02-12T08:29:24.371Z,98.99
2023-02-12T08:31:58.230Z,99.41
2023-02-12T08:34:28.781Z,99.66
2023-02-12T08:36:58.390Z,99.06
2023-02-12T08:39:29.617Z,99.43
2023-02-12T08:41:59.979Z,99.31
2023-02-12T08:44:29.845Z,98.57
2023-02-12T08:46:58.690Z,98.97
2023-02-12T08:49:29.280Z,98.82
2023-02-12T08:51:59.866Z,98.23
2023-02-12T08:54:29.429Z,98.35
2023-02-12T08:56:58.859Z,98.45
2023-02-12T08:59:27.535Z,98.28
2023-02-12T09:01:57.255Z,98.68
2023-02-12T09:04:27.082Z,99.09
2023-02-12T09:06:55.704Z,98.54
2023-02-12T09:09:24.328Z,98.48
2023-02-12T09:11:52.752Z,98.22
2023-02-12T09:14:24.070Z,97.16
2023-02-12T09:16:53.762Z,96.71
2023-02-12T09:19:24.002Z,98.00
2023-02-12T09:21:55.874Z,98.19
2023-02-12T09:24:25.097Z,98.60
2023-02-12T09:26:53.592Z,98.38
2023-02-12T09:29:21.989Z,97.70
2023-02-12T09:31:50.812Z,98.69
2023-02-12T09:34:19.319Z,98.31
2023-02-12T09:36:49.165Z,99.84
2023-02-12T09:39:17.452Z,98.61
2023-02-12T09:42:01.571Z,97.65
2023-02-12T09:44:34.957Z,97.19
2023-02-12T09:47:06.408Z,98.12
2023-02-12T09:49:52.435Z,97.39
2023-02-12T09:52:24.943Z,98.70
2023-02-12T09:54:54.637Z,98.53
2023-02-12T09:57:29.526Z,97.16
2023-02-12T10:00:00.683Z,97.48
2023-02-12T10:02:29.044Z,96.47
2023-02-12T10:05:01.544Z,95.99
2023-02-12T10:07:41.973Z,95.96
2023-02-12T10:10:19.892Z,95.74
2023-02-12T10:12:52.720Z,95.94
2023-02-12T10:15:35.597Z,95.23
2023-02-12T10:18:21.806Z,94.92
2023-02-12T10:20:56.710Z,94.21
2023-02-12T10:23:49.328Z,93.97
2023-02-12T10:26:21.949Z,93.62
2023-02-12T10:28:54.238Z,93.50
2023-02-12T10:31:29.096Z,93.27
2023-02-12T10:33:58.956Z,93.18
2023-02-12T10:36:38.702Z,92.61
2023-02-12T10:39:14.146Z,92.33
2023-02-12T10:41:46.677Z,92.60
2023-02-12T10:44:14.918Z,91.75
2023-02-12T10:46:43.055Z,91.54
2023-02-12T10:49:13.398Z,91.40
2023-02-12T10:51:50.389Z,91.10
2023-02-12T10:54:40.314Z,89.52
2023-02-12T10:57:18.166Z,90.10
2023-02-12T10:59:47.769Z,89.30
2023-02-12T11:02:31.707Z,89.30
2023-02-12T11:05:01.480Z,89.41
2023-02-12T11:07:30.119Z,89.76
2023-02-12T11:09:59.908Z,89.58
2023-02-12T11:12:32.598Z,89.33
2023-02-12T11:15:02.261Z,89.22
2023-02-12T11:17:35.977Z,88.88
2023-02-12T11:20:09.790Z,89.13
2023-02-12T11:22:38.338Z,88.96
2023-02-12T11:25:18.023Z,89.25
2023-02-12T11:27:46.185Z,88.88
2023-02-12T11:30:19.568Z,88.48
2023-02-12T11:32:49.447Z,88.05
2023-02-12T11:35:25.064Z,88.01
2023-02-12T11:37:55.615Z,87.86
2023-02-12T11:40:26.954Z,87.38
2023-02-12T11:42:57.338Z,86.94
2023-02-12T11:45:31.439Z,87.58
2023-02-12T11:48:00.131Z,87.23
2023-02-12T11:50:30.032Z,86.91
2023-02-12T11:53:01.352Z,87.29
2023-02-12T11:55:33.778Z,86.57
2023-02-12T11:58:06.854Z,86.76
2023-02-12T12:00:39.194Z,86.53
2023-02-12T12:03:14.910Z,86.36
2023-02-12T12:05:47.322Z,86.26
2023-02-12T12:08:21.126Z,86.70
2023-02-12T12:10:55.977Z,86.38
2023-02-12T12:13:28.946Z,86.73
2023-02-12T12:16:23.310Z,86.59
2023-02-12T12:19:13.009Z,86.36
2023-02-12T12:21:44.968Z,86.43
2023-02-12T12:24:16.239Z,87.17
2023-02-12T12:26:48.788Z,87.62
2023-02-12T12:29:21.005Z,87.54
2023-02-12T12:31:51.383Z,87.21
2023-02-12T12:34:21.236Z,86.91
2023-02-12T12:37:07.470Z,87.17
2023-02-12T12:39:37.852Z,87.09
2023-02-12T12:42:37.503Z,87.43
2023-02-12T12:45:44.120Z,86.73
2023-02-12T12:48:22.940Z,85.55
2023-02-12T12:51:04.002Z,86.13
2023-02-12T12:53:40.560Z,85.02
2023-02-12T12:56:21.645Z,85.78
2023-02-12T12:59:01.954Z,84.55
2023-02-12T13:02:11.454Z,84.70
2023-02-12T13:04:57.182Z,84.30
2023-02-12T13:07:43.240Z,83.54
2023-02-12T13:10:23.763Z,83.74
2023-02-12T13:13:02.531Z,83.90
2023-02-12T13:15:36.159Z,84.19
2023-02-12T13:18:13.981Z,84.51
2023-02-12T13:20:49.801Z,84.58
2023-02-12T13:23:21.202Z,85.04
2023-02-12T13:25:55.525Z,84.39
2023-02-12T13:28:30.585Z,83.98
2023-02-12T13:31:01.464Z,83.86
2023-02-12T13:33:36.259Z,82.58
2023-02-12T13:36:07.429Z,81.82
2023-02-12T13:38:40.026Z,81.17
2023-02-12T13:41:10.908Z,80.45
2023-02-12T13:43:48.642Z,80.61
2023-02-12T13:46:25.466Z,81.00
2023-02-12T13:49:00.121Z,81.11
2023-02-12T13:51:34.478Z,81.23
2023-02-12T13:54:18.132Z,80.81
2023-02-12T13:56:47.826Z,81.47
2023-02-12T13:59:41.841Z,81.16
2023-02-12T14:02:52.141Z,81.73
2023-02-12T14:05:30.354Z,81.48
2023-02-12T14:08:00.911Z,82.17
2023-02-12T14:10:31.798Z,81.30
2023-02-12T14:13:12.823Z,80.51
2023-02-12T14:15:44.634Z,80.90
2023-02-12T14:18:31.264Z,81.34
2023-02-12T14:21:40.949Z,81.60
2023-02-12T14:24:52.018Z,80.96
2023-02-12T14:27:28.682Z,81.01
2023-02-12T14:30:25.692Z,79.70
2023-02-12T14:33:23.407Z,80.04
2023-02-12T14:36:15.144Z,80.15
2023-02-12T14:39:02.520Z,80.07
2023-02-12T14:41:37.904Z,79.96
2023-02-12T14:44:46.047Z,79.94
2023-02-12T14:47:45.287Z,79.73
2023-02-12T14:50:19.053Z,79.04
2023-02-12T14:52:53.149Z,79.36
2023-02-12T14:55:27.576Z,79.48
2023-02-12T14:58:01.685Z,78.70
2023-02-12T15:00:34.063Z,78.43
2023-02-12T15:03:07.910Z,78.18
2023-02-12T15:05:39.751Z,78.19
2023-02-12T15:08:12.128Z,78.30
2023-02-12T15:10:43.139Z,77.70
2023-02-12T15:13:40.091Z,78.09
2023-02-12T15:16:10.715Z,77.76
2023-02-12T15:18:47.097Z,77.45
2023-02-12T15:21:21.990Z,76.30
2023-02-12T15:24:02.242Z,75.07
2023-02-12T15:26:33.404Z,74.96
2023-02-12T15:29:02.262Z,74.00
2023-02-12T15:31:32.982Z,74.44
2023-02-12T15:34:03.328Z,73.83
2023-02-12T15:36:34.381Z,73.83
2023-02-12T15:39:04.966Z,72.03
2023-02-12T15:41:38.771Z,72.59
2023-02-12T15:44:21.287Z,72.04
2023-02-12T15:46:57.298Z,72.17
2023-02-12T15:49:30.764Z,73.29
2023-02-12T15:52:02.368Z,72.96
2023-02-12T15:54:30.995Z,74.12
2023-02-12T15:56:59.491Z,73.85
2023-02-12T15:59:29.664Z,74.87
2023-02-12T16:02:00.680Z,74.22
2023-02-12T16:04:31.508Z,75.09
2023-02-12T16:07:01.938Z,75.39
2023-02-12T16:09:32.311Z,76.02
2023-02-12T16:12:02.808Z,75.85
2023-02-12T16:14:40.785Z,76.65
2023-02-12T16:17:22.374Z,77.19
2023-02-12T16:19:58.797Z,76.90
2023-02-12T16:22:32.263Z,77.71
2023-02-12T16:25:01.641Z,78.80
2023-02-12T16:27:32.101Z,78.19
2023-02-12T16:30:01.834Z,78.87
2023-02-12T16:32:36.292Z,78.56
2023-02-12T16:35:08.485Z,78.28
2023-02-12T16:37:49.941Z,78.40
2023-02-12T16:40:30.876Z,77.75
2023-02-12T16:43:02.003Z,78.01
2023-02-12T16:45:38.236Z,78.00
2023-02-12T16:48:15.203Z,78.21
2023-02-12T16:50:47.618Z,78.44
2023-02-12T16:53:29.417Z,78.77
2023-02-12T16:55:58.201Z,78.94
2023-02-12T16:58:26.942Z,79.58
2023-02-12T17:00:56.768Z,79.99
2023-02-12T17:03:25.745Z,80.39
2023-02-12T17:05:54.906Z,80.36
2023-02-12T17:08:26.053Z,80.96
2023-02-12T17:10:54.408Z,81.13
2023-02-12T17:13:22.737Z,80.93
2023-02-12T17:15:54.115Z,80.92
2023-02-12T17:18:23.206Z,80.52
2023-02-12T17:20:55.424Z,80.17
2023-02-12T17:23:24.530Z,80.45
2023-02-12T17:25:54.553Z,80.70
2023-02-12T17:28:25.187Z,81.14
2023-02-12T17:30:54.893Z,81.76
2023-02-12T17:33:23.834Z,80.95
2023-02-12T17:35:52.094Z,81.82
2023-02-12T17:38:20.364Z,81.70
2023-02-12T17:40:48.679Z,81.72
2023-02-12T17:43:18.500Z,81.18
2023-02-12T17:45:47.134Z,81.62
2023-02-12T17:48:17.591Z,80.60
2023-02-12T17:50:45.908Z,80.90
2023-02-12T17:53:14.184Z,80.75
2023-02-12T17:55:42.687Z,81.24
2023-02-12T17:58:10.948Z,81.35
2023-02-12T18:00:41.688Z,81.54
2023-02-12T18:03:10.058Z,81.61
2023-02-12T18:05:41.904Z,81.21
2023-02-12T18:08:11.036Z,81.79
2023-02-12T18:10:41.354Z,81.86
2023-02-12T18:13:10.089Z,82.00
2023-02-12T18:15:38.661Z,81.70
2023-02-12T18:18:08.468Z,81.98
2023-02-12T18:20:37.100Z,81.46
2023-02-12T18:23:06.607Z,81.65
2023-02-12T18:25:34.915Z,81.16
2023-02-12T18:28:03.246Z,81.81
2023-02-12T18:30:31.721Z,81.07
2023-02-12T18:33:00.117Z,81.70
2023-02-12T18:35:29.639Z,81.35
2023-02-12T18:37:57.832Z,81.19
2023-02-12T18:40:26.467Z,81.37
2023-02-12T18:42:54.712Z,80.85
2023-02-12T18:45:23.006Z,82.09
2023-02-12T18:47:51.302Z,81.70
2023-02-12T18:50:20.609Z,82.78
2023-02-12T18:52:50.309Z,82.87
2023-02-12T18:55:18.636Z,83.29
2023-02-12T18:57:46.957Z,84.78
2023-02-12T19:00:15.997Z,84.44
2023-02-12T19:02:44.201Z,84.14
2023-02-12T19:05:12.986Z,84.50
2023-02-12T19:07:41.177Z,85.73
2023-02-12T19:10:11.899Z,85.58
2023-02-12T19:12:40.902Z,86.90
2023-02-12T19:15:09.852Z,87.79
2023-02-12T19:17:38.061Z,87.93
2023-02-12T19:20:07.101Z,89.12
2023-02-12T19:22:35.335Z,91.17
2023-02-12T19:25:04.204Z,91.09
2023-02-12T19:27:33.760Z,90.69
2023-02-12T19:30:02.709Z,90.71
2023-02-12T19:32:31.320Z,91.44
2023-02-12T19:34:59.584Z,91.82
2023-02-12T19:37:27.777Z,92.21
2023-02-12T19:39:56.018Z,90.76
2023-02-12T19:42:24.207Z,90.71
2023-02-12T19:44:53.784Z,90.81
2023-02-12T19:47:22.004Z,90.53
2023-02-12T19:49:50.386Z,90.83
2023-02-12T19:52:18.599Z,90.90
2023-02-12T19:54:46.741Z,89.77
2023-02-12T19:57:15.417Z,89.84
2023-02-12T19:59:46.428Z,90.01
2023-02-12T20:02:15.987Z,90.27
2023-02-12T20:04:44.159Z,89.84
2023-02-12T20:07:13.558Z,90.53
2023-02-12T20:09:41.712Z,90.98
2023-02-12T20:12:09.962Z,90.42
2023-02-12T20:14:38.224Z,90.09
2023-02-12T20:17:06.803Z,90.09
2023-02-12T20:19:36.405Z,90.87
2023-02-12T20:22:04.686Z,89.96
2023-02-12T20:24:34.011Z,90.40
2023-02-12T20:27:27.009Z,89.86
2023-02-12T20:29:55.743Z,91.03
2023-02-12T20:32:24.122Z,91.02
2023-02-12T20:34:53.810Z,90.30
2023-02-12T20:37:22.150Z,90.92
2023-02-12T20:39:50.373Z,90.58
2023-02-12T20:42:18.770Z,90.87
2023-02-12T20:44:47.143Z,90.63
2023-02-12T20:47:15.435Z,90.93
2023-02-12T20:49:43.735Z,90.78
2023-02-12T20:52:13.590Z,89.93
2023-02-12T20:54:42.316Z,90.45
2023-02-12T20:57:10.691Z,90.35
2023-02-12T20:59:39.134Z,90.71
2023-02-12T21:02:08.251Z,91.35
2023-02-12T21:04:36.466Z,90.59
2023-02-12T21:07:04.724Z,90.63
2023-02-12T21:09:34.774Z,90.51
2023-02-12T21:12:02.934Z,90.18
2023-02-12T21:14:31.170Z,90.27
2023-02-12T21:16:59.803Z,90.98
2023-02-12T21:19:29.111Z,91.03
2023-02-12T21:21:57.346Z,90.66
2023-02-12T21:24:26.599Z,90.85
2023-02-12T21:26:57.101Z,90.92
2023-02-12T21:29:26.718Z,91.51
2023-02-12T21:31:55.508Z,90.47
2023-02-12T21:34:25.067Z,91.60
2023-02-12T21:36:55.266Z,91.22
2023-02-12T21:39:26.381Z,90.76
2023-02-12T21:41:58.561Z,91.37
2023-02-12T21:44:27.391Z,91.15
2023-02-12T21:46:55.960Z,91.23
2023-02-12T21:49:27.869Z,91.07
2023-02-12T21:51:57.979Z,91.79
2023-02-12T21:54:27.290Z,91.65
2023-02-12T21:56:57.375Z,91.55
2023-02-12T21:59:26.600Z,92.08
2023-02-12T22:01:58.378Z,92.21
2023-02-12T22:04:26.864Z,92.54
2023-02-12T22:06:56.570Z,92.35
2023-02-12T22:09:25.095Z,93.20
2023-02-12T22:11:53.463Z,93.04
2023-02-12T22:14:23.399Z,92.60
2023-02-12T22:16:51.813Z,92.89
2023-02-12T22:19:20.793Z,92.82
2023-02-12T22:21:51.505Z,92.86
2023-02-12T22:24:20.007Z,93.15
2023-02-12T22:26:48.240Z,94.15
2023-02-12T22:29:17.306Z,94.54
2023-02-12T22:31:48.032Z,94.00
2023-02-12T22:34:18.768Z,93.82
2023-02-12T22:36:47.592Z,94.02
2023-02-12T22:39:17.611Z,93.81
2023-02-12T22:41:46.301Z,93.78
2023-02-12T22:44:15.865Z,93.15
2023-02-12T22:46:44.786Z,93.41
2023-02-12T22:49:14.945Z,92.76
2023-02-12T22:51:43.386Z,92.80
2023-02-12T22:54:14.237Z,93.03
2023-02-12T22:56:42.755Z,92.36
2023-02-12T22:59:12.436Z,93.26
2023-02-12T23:01:40.780Z,92.69
2023-02-12T23:04:09.641Z,92.99
2023-02-12T23:06:39.333Z,93.04
2023-02-12T23:09:07.930Z,92.91
2023-02-12T23:11:36.276Z,92.68
2023-02-12T23:14:04.586Z,93.18
2023-02-12T23:16:33.015Z,93.46
2023-02-12T23:19:02.451Z,92.53
2023-02-12T23:21:31.847Z,92.89
2023-02-12T23:24:01.433Z,93.16
2023-02-12T23:26:30.289Z,93.28
2023-02-12T23:28:58.928Z,92.87
2023-02-12T23:31:27.405Z,93.22
2023-02-12T23:33:55.728Z,93.18
2023-02-12T23:36:23.961Z,93.82
2023-02-12T23:38:52.308Z,93.61
2023-02-12T23:41:21.890Z,93.24
2023-02-12T23:43:50.063Z,92.95
2023-02-12T23:46:18.347Z,93.32
2023-02-12T23:48:46.572Z,93.75
2023-02-12T23:51:14.895Z,93.65
2023-02-12T23:53:43.046Z,94.25
2023-02-12T23:56:11.748Z,94.47
2023-02-12T23:58:41.371Z,93.92
